createdAt,value
2023-03-26T00:01:29.764Z,76.21
2023-03-26T00:03:58.074Z,75.13
2023-03-26T00:06:31.026Z,74.73
2023-03-26T00:08:59.178Z,75.13
2023-03-26T00:11:27.889Z,75.56
2023-03-26T00:13:57.902Z,75.69
2023-03-26T00:16:27.822Z,75.49
2023-03-26T00:18:54.875Z,76.08
2023-03-26T00:21:32.270Z,76.11
2023-03-26T00:24:04.757Z,75.55
2023-03-26T00:26:35.842Z,76.79
2023-03-26T00:29:04.133Z,76.23
2023-03-26T00:31:31.705Z,76.82
2023-03-26T00:33:59.576Z,77.14
2023-03-26T00:36:26.837Z,76.80
2023-03-26T00:38:54.445Z,75.81
2023-03-26T00:41:26.133Z,76.01
2023-03-26T00:43:59.155Z,75.46
2023-03-26T00:46:28.360Z,75.85
2023-03-26T00:48:59.014Z,75.62
2023-03-26T00:51:26.842Z,76.80
2023-03-26T00:53:53.961Z,76.49
2023-03-26T00:56:20.829Z,76.64
2023-03-26T00:58:50.192Z,76.32
2023-03-26T01:01:28.493Z,75.64
2023-03-26T01:04:08.769Z,75.93
2023-03-26T01:06:37.986Z,76.60
2023-03-26T01:09:14.205Z,77.41
2023-03-26T01:11:41.171Z,77.58
2023-03-26T01:14:24.099Z,78.49
2023-03-26T01:16:57.444Z,78.18
2023-03-26T01:19:40.916Z,78.38
2023-03-26T01:22:12.047Z,78.61
2023-03-26T01:24:39.770Z,78.58
2023-03-26T01:27:18.188Z,78.86
2023-03-26T01:30:03.927Z,78.54
2023-03-26T01:32:34.437Z,78.60
2023-03-26T01:35:12.532Z,78.68
2023-03-26T01:37:58.864Z,78.36
2023-03-26T01:40:28.316Z,78.59
2023-03-26T01:43:06.131Z,77.90
2023-03-26T01:45:36.732Z,77.05
2023-03-26T01:48:05.593Z,76.21
2023-03-26T01:50:32.406Z,76.37
2023-03-26T01:52:59.253Z,76.00
2023-03-26T01:55:34.221Z,74.23
2023-03-26T01:58:17.348Z,74.83
2023-03-26T02:01:02.208Z,74.40
2023-03-26T02:03:37.176Z,74.66
2023-03-26T02:06:15.905Z,75.17
2023-03-26T02:08:48.111Z,72.79
2023-03-26T02:11:16.657Z,74.07
2023-03-26T02:13:45.389Z,73.58
2023-03-26T02:16:16.521Z,74.98
2023-03-26T02:18:45.096Z,74.84
2023-03-26T02:21:20.461Z,76.50
2023-03-26T02:24:12.160Z,76.27
2023-03-26T02:26:40.063Z,77.06
2023-03-26T02:29:10.123Z,78.36
2023-03-26T02:31:39.142Z,78.09
2023-03-26T02:34:07.208Z,79.09
2023-03-26T02:36:38.219Z,80.88
2023-03-26T02:39:08.054Z,79.32
2023-03-26T02:41:41.010Z,79.27
2023-03-26T02:44:10.801Z,78.54
2023-03-26T02:46:57.848Z,78.65
2023-03-26T02:50:04.769Z,78.88
2023-03-26T02:52:51.476Z,79.15
2023-03-26T02:55:18.353Z,79.44
2023-03-26T02:57:46.285Z,79.39
2023-03-26T03:00:17.244Z,79.79
2023-03-26T03:03:04.657Z,79.62
2023-03-26T03:05:32.723Z,79.43
2023-03-26T03:08:18.479Z,79.27
2023-03-26T03:11:14.799Z,79.17
2023-03-26T03:13:49.247Z,79.10
2023-03-26T03:16:20.504Z,79.16
2023-03-26T03:18:54.785Z,79.61
2023-03-26T03:21:24.470Z,79.90
2023-03-26T03:23:51.368Z,79.89
2023-03-26T03:26:23.039Z,79.54
2023-03-26T03:28:52.481Z,79.86
2023-03-26T03:31:19.297Z,79.54
2023-03-26T03:33:46.629Z,79.98
2023-03-26T03:36:19.971Z,79.85
2023-03-26T03:38:50.971Z,79.90
2023-03-26T03:41:20.414Z,80.05
2023-03-26T03:43:48.006Z,80.16
2023-03-26T03:46:19.811Z,80.45
2023-03-26T03:48:49.997Z,80.03
2023-03-26T03:51:25.498Z,77.91
2023-03-26T03:53:57.667Z,80.89
2023-03-26T03:56:48.718Z,82.36
2023-03-26T03:59:34.239Z,81.66
2023-03-26T04:02:05.184Z,81.83
2023-03-26T04:04:46.455Z,82.17
2023-03-26T04:07:16.019Z,82.41
2023-03-26T04:10:21.370Z,81.91
2023-03-26T04:13:06.383Z,83.04
2023-03-26T04:15:56.650Z,82.86
2023-03-26T04:18:24.035Z,82.80
2023-03-26T04:20:51.004Z,83.79
2023-03-26T04:23:26.682Z,83.41
2023-03-26T04:26:13.509Z,83.84
2023-03-26T04:29:05.864Z,84.00
2023-03-26T04:31:34.261Z,83.62
2023-03-26T04:34:14.319Z,83.61
2023-03-26T04:36:56.581Z,83.46
2023-03-26T04:39:29.280Z,82.75
2023-03-26T04:42:15.442Z,81.67
2023-03-26T04:45:00.035Z,82.75
2023-03-26T04:47:29.204Z,83.71
2023-03-26T04:49:56.031Z,83.37
2023-03-26T04:52:23.062Z,82.74
2023-03-26T04:55:17.057Z,82.60
2023-03-26T04:57:46.684Z,82.86
2023-03-26T05:00:33.453Z,82.45
2023-03-26T05:03:01.668Z,82.31
2023-03-26T05:05:29.325Z,82.41
2023-03-26T05:07:58.821Z,83.36
2023-03-26T05:10:25.910Z,83.23
2023-03-26T05:13:02.071Z,82.93
2023-03-26T05:15:35.843Z,83.63
2023-03-26T05:18:28.995Z,83.24
2023-03-26T05:20:57.802Z,82.75
2023-03-26T05:23:25.850Z,83.17
2023-03-26T05:26:04.352Z,83.24
2023-03-26T05:28:31.264Z,82.90
2023-03-26T05:31:08.805Z,83.37
2023-03-26T05:33:38.941Z,83.07
2023-03-26T05:36:15.425Z,82.75
2023-03-26T05:38:50.030Z,83.52
2023-03-26T05:41:35.979Z,83.65
2023-03-26T05:44:02.905Z,83.10
2023-03-26T05:46:31.169Z,81.64
2023-03-26T05:48:58.708Z,81.51
2023-03-26T05:51:28.360Z,82.20
2023-03-26T05:54:13.915Z,82.57
2023-03-26T05:57:00.116Z,83.35
2023-03-26T05:59:45.883Z,83.27
2023-03-26T06:02:31.763Z,83.31
2023-03-26T06:05:18.314Z,83.59
2023-03-26T06:08:00.881Z,83.82
2023-03-26T06:10:38.144Z,84.11
2023-03-26T06:13:06.133Z,83.83
2023-03-26T06:15:35.780Z,84.91
2023-03-26T06:18:16.020Z,85.61
2023-03-26T06:21:04.316Z,85.53
2023-03-26T06:23:43.836Z,85.88
2023-03-26T06:26:37.091Z,85.56
2023-03-26T06:29:21.241Z,85.46
2023-03-26T06:32:01.445Z,85.62
2023-03-26T06:34:38.075Z,85.50
2023-03-26T06:37:04.991Z,85.05
2023-03-26T06:39:31.962Z,85.27
2023-03-26T06:42:19.717Z,85.07
2023-03-26T06:45:06.064Z,84.69
2023-03-26T06:48:11.214Z,84.74
2023-03-26T06:50:49.662Z,84.97
2023-03-26T06:53:52.326Z,84.67
2023-03-26T06:56:43.076Z,84.61
2023-03-26T06:59:28.831Z,85.31
2023-03-26T07:02:14.456Z,83.70
2023-03-26T07:05:00.378Z,81.97
2023-03-26T07:07:46.699Z,82.49
2023-03-26T07:10:23.455Z,82.29
2023-03-26T07:13:25.807Z,82.01
2023-03-26T07:16:11.481Z,81.47
2023-03-26T07:19:04.375Z,81.85
2023-03-26T07:21:36.089Z,81.14
2023-03-26T07:24:13.870Z,79.74
2023-03-26T07:27:18.156Z,79.20
2023-03-26T07:29:48.386Z,79.71
2023-03-26T07:32:43.482Z,80.79
2023-03-26T07:35:31.268Z,80.55
2023-03-26T07:38:47.990Z,80.73
2023-03-26T07:42:10.032Z,81.48
2023-03-26T07:45:19.676Z,80.70
2023-03-26T07:48:30.199Z,80.72
2023-03-26T07:51:12.001Z,80.61
2023-03-26T07:54:09.153Z,81.13
2023-03-26T07:57:02.165Z,79.85
2023-03-26T07:59:44.694Z,79.82
2023-03-26T08:02:55.106Z,79.12
2023-03-26T08:05:51.797Z,78.83
2023-03-26T08:08:49.052Z,78.77
2023-03-26T08:11:58.765Z,80.59
2023-03-26T08:14:51.634Z,85.05
2023-03-26T08:17:30.573Z,86.40
2023-03-26T08:20:12.001Z,87.63
2023-03-26T08:22:41.638Z,88.20
2023-03-26T08:25:33.546Z,87.89
2023-03-26T08:28:03.655Z,89.07
2023-03-26T08:30:31.218Z,88.22
2023-03-26T08:33:02.210Z,88.31
2023-03-26T08:35:29.196Z,87.84
2023-03-26T08:37:55.970Z,87.90
2023-03-26T08:41:01.691Z,86.85
2023-03-26T08:43:47.369Z,87.81
2023-03-26T08:46:49.020Z,85.88
2023-03-26T08:49:29.586Z,85.76
2023-03-26T08:52:08.439Z,84.50
2023-03-26T08:54:48.617Z,85.82
2023-03-26T08:57:47.413Z,85.63
2023-03-26T09:00:41.002Z,86.10
2023-03-26T09:03:13.819Z,85.65
2023-03-26T09:06:14.473Z,85.90
2023-03-26T09:08:59.429Z,86.42
2023-03-26T09:11:47.832Z,86.62
2023-03-26T09:14:20.298Z,85.01
2023-03-26T09:16:53.549Z,85.82
2023-03-26T09:19:50.861Z,82.76
2023-03-26T09:22:55.820Z,82.94
2023-03-26T09:25:35.347Z,83.00
2023-03-26T09:28:19.303Z,80.74
2023-03-26T09:31:05.023Z,80.81
2023-03-26T09:34:00.458Z,78.55
2023-03-26T09:36:49.834Z,76.97
2023-03-26T09:39:21.065Z,76.38
2023-03-26T09:42:10.226Z,75.61
2023-03-26T09:45:24.952Z,73.71
2023-03-26T09:48:29.351Z,74.16
2023-03-26T09:51:17.936Z,73.70
2023-03-26T09:53:50.308Z,71.33
2023-03-26T09:56:30.730Z,68.95
2023-03-26T09:59:06.101Z,68.72
2023-03-26T10:01:44.872Z,69.44
2023-03-26T10:04:23.931Z,69.51
2023-03-26T10:07:06.175Z,68.51
2023-03-26T10:09:57.570Z,69.50
2023-03-26T10:12:24.439Z,67.25
2023-03-26T10:15:22.822Z,68.65
2023-03-26T10:18:27.880Z,69.24
2023-03-26T10:21:18.155Z,66.93
2023-03-26T10:24:01.873Z,66.58
2023-03-26T10:26:33.933Z,65.79
2023-03-26T10:29:16.550Z,63.43
2023-03-26T10:32:07.319Z,64.77
2023-03-26T10:34:58.817Z,68.00
2023-03-26T10:37:55.661Z,69.88
2023-03-26T10:40:23.862Z,70.29
2023-03-26T10:43:01.727Z,70.83
2023-03-26T10:45:47.427Z,73.40
2023-03-26T10:48:21.696Z,75.39
2023-03-26T10:50:55.052Z,74.56
2023-03-26T10:53:39.332Z,75.05
2023-03-26T10:56:27.420Z,76.78
2023-03-26T10:58:56.947Z,76.40
2023-03-26T11:01:51.497Z,77.78
2023-03-26T11:04:24.074Z,78.71
2023-03-26T11:06:55.985Z,79.53
2023-03-26T11:09:29.360Z,79.82
2023-03-26T11:11:59.272Z,81.56
2023-03-26T11:14:51.922Z,79.78
2023-03-26T11:17:39.391Z,80.14
2023-03-26T11:20:40.698Z,81.74
2023-03-26T11:23:40.940Z,80.63
2023-03-26T11:26:17.774Z,81.85
2023-03-26T11:29:31.098Z,82.02
2023-03-26T11:31:59.103Z,82.69
2023-03-26T11:34:31.343Z,80.13
2023-03-26T11:36:59.164Z,83.16
2023-03-26T11:39:28.088Z,82.88
2023-03-26T11:42:14.076Z,82.45
2023-03-26T11:44:53.692Z,80.71
2023-03-26T11:47:25.353Z,82.31
2023-03-26T11:49:53.637Z,82.62
2023-03-26T11:52:20.701Z,82.62
2023-03-26T11:54:50.595Z,82.75
2023-03-26T11:57:27.036Z,82.10
2023-03-26T12:00:04.470Z,80.98
2023-03-26T12:02:40.682Z,82.25
2023-03-26T12:05:18.193Z,81.62
2023-03-26T12:08:00.273Z,80.73
2023-03-26T12:10:35.382Z,81.23
2023-03-26T12:13:14.998Z,81.17
2023-03-26T12:15:44.980Z,79.39
2023-03-26T12:18:24.652Z,78.51
2023-03-26T12:21:10.336Z,76.50
2023-03-26T12:23:57.778Z,76.67
2023-03-26T12:26:39.667Z,73.41
2023-03-26T12:29:10.326Z,75.28
2023-03-26T12:31:57.413Z,72.77
2023-03-26T12:34:39.521Z,71.25
2023-03-26T12:37:08.499Z,72.77
2023-03-26T12:40:09.271Z,73.26
2023-03-26T12:44:46.779Z,75.22
2023-03-26T12:45:24.630Z,75.83
2023-03-26T12:47:59.338Z,77.41
2023-03-26T12:51:24.824Z,78.09
2023-03-26T12:53:57.871Z,76.95
2023-03-26T12:56:37.025Z,76.70
2023-03-26T12:59:34.088Z,75.87
2023-03-26T13:02:20.213Z,73.66
2023-03-26T13:05:06.358Z,71.28
2023-03-26T13:07:40.705Z,70.17
2023-03-26T13:10:16.976Z,68.10
2023-03-26T13:13:02.908Z,64.56
2023-03-26T13:15:43.496Z,65.42
2023-03-26T13:18:37.910Z,64.95
2023-03-26T13:21:46.809Z,68.24
2023-03-26T13:24:22.461Z,72.88
2023-03-26T13:27:21.090Z,74.34
2023-03-26T13:30:01.076Z,72.39
2023-03-26T13:32:46.075Z,71.10
2023-03-26T13:35:28.347Z,69.18
2023-03-26T13:38:29.378Z,71.29
2023-03-26T13:41:13.644Z,69.78
2023-03-26T13:44:23.245Z,69.69
2023-03-26T13:46:53.738Z,70.10
2023-03-26T13:49:48.774Z,69.20
2023-03-26T13:52:27.215Z,68.26
2023-03-26T13:55:06.178Z,68.39
2023-03-26T13:57:37.434Z,64.17
2023-03-26T14:00:16.664Z,64.14
2023-03-26T14:02:44.849Z,60.17
2023-03-26T14:05:22.313Z,59.61
2023-03-26T14:07:50.754Z,56.56
2023-03-26T14:10:21.698Z,57.58
2023-03-26T14:12:51.810Z,51.01
2023-03-26T14:15:25.831Z,55.14
2023-03-26T14:17:58.910Z,48.59
2023-03-26T14:21:02.422Z,48.62
2023-03-26T14:23:53.397Z,44.79
2023-03-26T14:26:26.936Z,45.13
2023-03-26T14:29:18.981Z,41.55
2023-03-26T14:32:09.027Z,44.45
2023-03-26T14:34:54.854Z,48.26
2023-03-26T14:37:34.374Z,53.78
2023-03-26T14:40:15.159Z,54.44
2023-03-26T14:43:04.398Z,54.77
2023-03-26T14:45:46.487Z,52.26
2023-03-26T14:48:42.635Z,55.09
2023-03-26T14:51:25.110Z,56.13
2023-03-26T14:54:01.096Z,53.29
2023-03-26T14:56:48.465Z,54.39
2023-03-26T14:59:39.918Z,49.91
2023-03-26T15:02:09.709Z,52.96
2023-03-26T15:05:07.202Z,51.63
2023-03-26T15:07:58.233Z,54.30
2023-03-26T15:10:43.237Z,54.93
2023-03-26T15:13:34.612Z,55.10
2023-03-26T15:16:13.923Z,55.31
2023-03-26T15:19:04.332Z,51.51
2023-03-26T15:21:43.515Z,47.68
2023-03-26T15:24:15.038Z,48.12
2023-03-26T15:27:09.257Z,48.75
2023-03-26T15:29:42.430Z,45.60
2023-03-26T15:32:12.331Z,47.43
2023-03-26T15:34:48.676Z,46.15
2023-03-26T15:37:17.265Z,44.02
2023-03-26T15:40:11.987Z,45.52
2023-03-26T15:43:08.945Z,47.37
2023-03-26T15:45:47.633Z,45.67
2023-03-26T15:48:30.128Z,46.74
2023-03-26T15:51:15.613Z,48.49
2023-03-26T15:54:14.019Z,47.29
2023-03-26T15:56:49.718Z,48.52
2023-03-26T15:59:38.438Z,46.33
2023-03-26T16:02:05.238Z,43.98
2023-03-26T16:04:57.599Z,42.87
2023-03-26T16:07:39.159Z,45.68
2023-03-26T16:10:35.652Z,44.63
2023-03-26T16:13:24.461Z,46.09
2023-03-26T16:16:18.179Z,47.81
2023-03-26T16:19:18.456Z,48.74
2023-03-26T16:22:12.098Z,49.95
2023-03-26T16:24:42.503Z,49.05
2023-03-26T16:27:15.722Z,48.98
2023-03-26T16:30:00.668Z,47.43
2023-03-26T16:32:40.860Z,43.27
2023-03-26T16:35:13.749Z,42.07
2023-03-26T16:37:45.695Z,41.66
2023-03-26T16:40:18.698Z,43.99
2023-03-26T16:43:11.638Z,45.45
2023-03-26T16:46:09.650Z,45.30
2023-03-26T16:48:45.637Z,49.97
2023-03-26T16:51:22.566Z,51.21
2023-03-26T16:53:57.783Z,54.05
2023-03-26T16:56:39.056Z,59.62
2023-03-26T16:59:25.236Z,60.57
2023-03-26T17:02:02.992Z,62.36
2023-03-26T17:04:32.288Z,61.05
2023-03-26T17:07:16.990Z,60.30
2023-03-26T17:09:59.122Z,59.90
2023-03-26T17:12:40.569Z,60.38
2023-03-26T17:15:13.273Z,59.99
2023-03-26T17:18:03.649Z,61.19
2023-03-26T17:20:51.905Z,62.71
2023-03-26T17:23:38.372Z,63.50
2023-03-26T17:26:19.207Z,64.34
2023-03-26T17:29:33.031Z,64.56
2023-03-26T17:32:01.191Z,62.57
2023-03-26T17:34:40.415Z,60.95
2023-03-26T17:37:27.803Z,61.45
2023-03-26T17:40:01.240Z,61.77
2023-03-26T17:42:33.100Z,60.66
2023-03-26T17:45:30.198Z,59.22
2023-03-26T17:48:00.263Z,56.84
2023-03-26T17:50:32.005Z,56.64
2023-03-26T17:52:58.783Z,57.37
2023-03-26T17:55:31.351Z,56.59
2023-03-26T17:58:00.444Z,55.91
2023-03-26T18:00:31.869Z,56.47
2023-03-26T18:03:07.867Z,56.56
2023-03-26T18:05:39.307Z,57.24
2023-03-26T18:08:18.039Z,56.56
2023-03-26T18:11:08.349Z,56.43
2023-03-26T18:14:04.362Z,57.07
2023-03-26T18:16:53.310Z,56.70
2023-03-26T18:19:23.078Z,57.42
2023-03-26T18:21:52.022Z,56.54
2023-03-26T18:24:24.527Z,56.49
2023-03-26T18:27:12.518Z,55.06
2023-03-26T18:29:47.276Z,55.84
2023-03-26T18:32:22.226Z,56.28
2023-03-26T18:35:00.894Z,55.81
2023-03-26T18:37:38.702Z,55.74
2023-03-26T18:40:11.657Z,55.74
2023-03-26T18:42:39.747Z,56.72
2023-03-26T18:45:24.057Z,56.90
2023-03-26T18:47:59.060Z,57.68
2023-03-26T18:50:29.460Z,57.73
2023-03-26T18:52:59.073Z,57.51
2023-03-26T18:55:30.021Z,57.62
2023-03-26T18:57:57.329Z,58.27
2023-03-26T19:00:26.104Z,57.65
2023-03-26T19:03:13.295Z,58.10
2023-03-26T19:05:40.733Z,58.10
2023-03-26T19:08:08.855Z,57.88
2023-03-26T19:10:36.598Z,58.53
2023-03-26T19:13:04.354Z,58.86
2023-03-26T19:15:32.722Z,59.47
2023-03-26T19:18:07.282Z,59.37
2023-03-26T19:20:41.720Z,61.01
2023-03-26T19:23:13.422Z,61.31
2023-03-26T19:25:42.660Z,61.62
2023-03-26T19:28:17.981Z,63.46
2023-03-26T19:30:44.908Z,64.73
2023-03-26T19:33:19.604Z,64.58
2023-03-26T19:35:52.644Z,65.56
2023-03-26T19:38:27.671Z,65.10
2023-03-26T19:40:56.750Z,63.04
2023-03-26T19:43:24.897Z,62.92
2023-03-26T19:46:00.601Z,63.30
2023-03-26T19:48:46.334Z,62.99
2023-03-26T19:51:45.767Z,64.34
2023-03-26T19:54:16.090Z,65.21
2023-03-26T19:56:43.666Z,65.77
2023-03-26T19:59:10.530Z,65.88
2023-03-26T20:01:37.679Z,65.75
2023-03-26T20:04:06.440Z,67.09
2023-03-26T20:06:43.880Z,71.01
2023-03-26T20:09:14.297Z,74.62
2023-03-26T20:11:41.576Z,77.66
2023-03-26T20:14:14.812Z,79.18
2023-03-26T20:16:44.307Z,78.90
2023-03-26T20:19:14.183Z,77.36
2023-03-26T20:21:41.741Z,77.65
2023-03-26T20:24:15.097Z,78.39
2023-03-26T20:26:42.851Z,78.66
2023-03-26T20:29:10.253Z,78.13
2023-03-26T20:31:38.397Z,79.88
2023-03-26T20:34:09.213Z,78.56
2023-03-26T20:36:36.859Z,79.06
2023-03-26T20:39:06.167Z,79.34
2023-03-26T20:41:33.894Z,76.46
2023-03-26T20:44:01.063Z,77.63
2023-03-26T20:46:30.847Z,77.08
2023-03-26T20:48:59.942Z,76.84
2023-03-26T20:51:28.736Z,76.89
2023-03-26T20:53:56.341Z,76.88
2023-03-26T20:56:23.619Z,76.76
2023-03-26T20:59:03.647Z,76.81
2023-03-26T21:01:38.444Z,76.55
2023-03-26T21:04:06.628Z,77.45
2023-03-26T21:06:33.644Z,76.79
2023-03-26T21:09:00.999Z,76.69
2023-03-26T21:11:56.116Z,79.47
2023-03-26T21:14:28.626Z,79.00
2023-03-26T21:16:55.836Z,78.89
2023-03-26T21:19:23.265Z,77.09
2023-03-26T21:22:14.346Z,78.88
2023-03-26T21:24:41.106Z,82.15
2023-03-26T21:27:11.057Z,82.71
2023-03-26T21:29:38.359Z,84.86
2023-03-26T21:32:05.883Z,84.38
2023-03-26T21:34:34.142Z,84.63
2023-03-26T21:37:01.848Z,82.35
2023-03-26T21:39:30.005Z,82.24
2023-03-26T21:42:04.739Z,82.02
2023-03-26T21:44:34.073Z,81.32
2023-03-26T21:47:01.279Z,82.07
2023-03-26T21:49:28.744Z,82.53
2023-03-26T21:51:56.025Z,81.30
2023-03-26T21:54:32.961Z,81.07
2023-03-26T21:57:06.399Z,80.35
2023-03-26T21:59:48.832Z,79.44
2023-03-26T22:02:18.632Z,79.63
2023-03-26T22:04:50.049Z,80.05
2023-03-26T22:07:26.182Z,80.45
2023-03-26T22:09:53.502Z,80.05
2023-03-26T22:12:20.449Z,80.13
2023-03-26T22:14:47.558Z,79.77
2023-03-26T22:17:14.415Z,79.09
2023-03-26T22:19:41.446Z,79.79
2023-03-26T22:22:08.264Z,79.43
2023-03-26T22:24:35.442Z,80.05
2023-03-26T22:27:02.489Z,79.37
2023-03-26T22:29:29.415Z,80.02
2023-03-26T22:31:56.505Z,80.37
2023-03-26T22:34:23.799Z,80.20
2023-03-26T22:36:50.571Z,80.10
2023-03-26T22:39:17.316Z,80.04
2023-03-26T22:41:44.142Z,80.43
2023-03-26T22:44:19.893Z,80.92
2023-03-26T22:46:49.613Z,80.77
2023-03-26T22:49:16.957Z,81.02
2023-03-26T22:51:44.120Z,80.47
2023-03-26T22:54:10.984Z,81.26
2023-03-26T22:56:37.848Z,82.11
2023-03-26T22:59:04.670Z,81.44
2023-03-26T23:01:31.706Z,82.23
2023-03-26T23:03:58.592Z,81.19
2023-03-26T23:06:25.728Z,80.23
2023-03-26T23:08:54.409Z,81.20
2023-03-26T23:11:23.320Z,81.43
2023-03-26T23:13:50.328Z,82.85
2023-03-26T23:16:17.769Z,83.43
2023-03-26T23:18:44.921Z,82.85
2023-03-26T23:21:18.527Z,83.09
2023-03-26T23:23:46.208Z,83.15
2023-03-26T23:26:13.685Z,83.55
2023-03-26T23:28:41.144Z,84.40
2023-03-26T23:31:09.684Z,83.51
2023-03-26T23:33:38.591Z,82.93
2023-03-26T23:36:10.749Z,82.86
2023-03-26T23:38:43.582Z,82.82
2023-03-26T23:41:15.320Z,82.88
2023-03-26T23:43:53.738Z,82.50
2023-03-26T23:46:23.822Z,82.19
2023-03-26T23:48:51.510Z,82.70
2023-03-26T23:51:20.250Z,83.04
2023-03-26T23:53:48.110Z,82.20
2023-03-26T23:56:15.429Z,81.75
2023-03-26T23:58:42.234Z,81.38
